sensor_id;sensor_type;location;lat;lon;timestamp;pressure;altitude;pressure_sealevel;temperature;humidity
73332;BME280;61560;33.718;73.040;2022-09-30T00:00:55;94299.97;;;24.44;68.48
73332;BME280;61560;33.718;73.040;2022-09-30T00:03:22;94313.72;;;24.48;68.54
73332;BME280;61560;33.718;73.040;2022-09-30T00:05:57;94313.72;;;24.48;68.21
73332;BME280;61560;33.718;73.040;2022-09-30T00:08:29;94323.88;;;24.51;68.20
73332;BME280;61560;33.718;73.040;2022-09-30T00:11:04;94325.69;;;24.48;68.03
73332;BME280;61560;33.718;73.040;2022-09-30T00:13:32;94325.19;;;24.44;68.53
73332;BME280;61560;33.718;73.040;2022-09-30T00:16:00;94329.25;;;24.43;68.02
73332;BME280;61560;33.718;73.040;2022-09-30T00:18:29;94327.00;;;24.36;68.56
73332;BME280;61560;33.718;73.040;2022-09-30T00:20:56;94338.44;;;24.32;68.78
73332;BME280;61560;33.718;73.040;2022-09-30T00:23:23;94336.72;;;24.24;68.76
73332;BME280;61560;33.718;73.040;2022-09-30T00:25:56;94338.97;;;24.20;68.48
73332;BME280;61560;33.718;73.040;2022-09-30T00:28:22;94340.78;;;24.17;68.84
73332;BME280;61560;33.718;73.040;2022-09-30T00:30:49;94349.41;;;24.25;69.09
73332;BME280;61560;33.718;73.040;2022-09-30T00:33:15;94351.19;;;24.28;68.73
73332;BME280;61560;33.718;73.040;2022-09-30T00:35:42;94363.13;;;24.28;69.00
73332;BME280;61560;33.718;73.040;2022-09-30T00:38:10;94357.28;;;24.26;69.07
73332;BME280;61560;33.718;73.040;2022-09-30T00:40:37;94363.13;;;24.28;68.87
73332;BME280;61560;33.718;73.040;2022-09-30T00:43:15;94370.75;;;24.33;69.05
73332;BME280;61560;33.718;73.040;2022-09-30T00:45:51;94377.38;;;24.36;69.28
73332;BME280;61560;33.718;73.040;2022-09-30T00:48:28;94375.06;;;24.34;68.97
73332;BME280;61560;33.718;73.040;2022-09-30T00:50:56;94379.69;;;24.32;68.84
73332;BME280;61560;33.718;73.040;2022-09-30T00:53:28;94382.47;;;24.32;69.27
73332;BME280;61560;33.718;73.040;2022-09-30T00:56:16;94377.91;;;24.29;69.44
73332;BME280;61560;33.718;73.040;2022-09-30T00:58:49;94379.94;;;24.28;69.10
73332;BME280;61560;33.718;73.040;2022-09-30T01:01:20;94388.09;;;24.32;68.95
73332;BME280;61560;33.718;73.040;2022-09-30T02:03:37;94446.09;;;25.22;65.92
73332;BME280;61560;33.718;73.040;2022-09-30T02:06:18;94446.53;;;25.37;65.67
73332;BME280;61560;33.718;73.040;2022-09-30T02:08:56;94448.28;;;25.51;65.28
73332;BME280;61560;33.718;73.040;2022-09-30T02:11:27;94448.44;;;25.64;64.76
73332;BME280;61560;33.718;73.040;2022-09-30T02:14:06;94450.59;;;25.82;64.75
73332;BME280;61560;33.718;73.040;2022-09-30T02:16:39;94451.31;;;25.94;64.39
73332;BME280;61560;33.718;73.040;2022-09-30T02:19:32;94460.91;;;26.10;63.98
73332;BME280;61560;33.718;73.040;2022-09-30T02:22:32;94468.44;;;26.26;63.85
73332;BME280;61560;33.718;73.040;2022-09-30T02:25:15;94463.25;;;26.35;63.69
73332;BME280;61560;33.718;73.040;2022-09-30T02:27:50;94470.00;;;26.51;63.39
73332;BME280;61560;33.718;73.040;2022-09-30T02:30:18;94472.47;;;26.60;62.92
73332;BME280;61560;33.718;73.040;2022-09-30T02:32:51;94475.16;;;26.71;62.45
73332;BME280;61560;33.718;73.040;2022-09-30T02:35:40;94467.88;;;26.87;62.00
73332;BME280;61560;33.718;73.040;2022-09-30T02:38:20;94476.94;;;26.98;61.62
73332;BME280;61560;33.718;73.040;2022-09-30T02:40:55;94481.63;;;27.14;61.40
73332;BME280;61560;33.718;73.040;2022-09-30T02:43:24;94481.25;;;27.23;60.84
73332;BME280;61560;33.718;73.040;2022-09-30T02:48:51;94480.69;;;27.49;60.32
73332;BME280;61560;33.718;73.040;2022-09-30T02:54:03;94492.97;;;27.70;59.36
73332;BME280;61560;33.718;73.040;2022-09-30T02:57:07;94490.91;;;27.89;59.00
73332;BME280;61560;33.718;73.040;2022-09-30T02:59:41;94500.03;;;27.95;58.65
73332;BME280;61560;33.718;73.040;2022-09-30T03:02:07;94498.81;;;28.09;57.88
73332;BME280;61560;33.718;73.040;2022-09-30T03:04:34;94504.94;;;28.26;56.71
73332;BME280;61560;33.718;73.040;2022-09-30T03:07:04;94496.41;;;28.32;56.88
73332;BME280;61560;33.718;73.040;2022-09-30T03:09:34;94498.34;;;28.56;56.34
73332;BME280;61560;33.718;73.040;2022-09-30T03:18:04;94506.94;;;29.73;53.50
73332;BME280;61560;33.718;73.040;2022-09-30T03:23:48;94500.94;;;31.34;48.39
73332;BME280;61560;33.718;73.040;2022-09-30T03:26:33;94499.00;;;32.44;45.95
73332;BME280;61560;33.718;73.040;2022-09-30T03:29:31;94505.22;;;33.71;43.20
73332;BME280;61560;33.718;73.040;2022-09-30T03:37:40;94494.44;;;36.50;38.01
73332;BME280;61560;33.718;73.040;2022-09-30T03:43:18;94492.19;;;37.48;34.63
73332;BME280;61560;33.718;73.040;2022-09-30T03:45:57;94500.06;;;37.86;33.85
73332;BME280;61560;33.718;73.040;2022-09-30T03:48:28;94501.84;;;38.48;32.68
73332;BME280;61560;33.718;73.040;2022-09-30T03:50:58;94500.06;;;38.93;31.41
73332;BME280;61560;33.718;73.040;2022-09-30T03:53:26;94511.16;;;39.48;31.00
73332;BME280;61560;33.718;73.040;2022-09-30T03:55:54;94496.81;;;40.00;29.78
73332;BME280;61560;33.718;73.040;2022-09-30T03:58:21;94506.31;;;40.02;28.80
73332;BME280;61560;33.718;73.040;2022-09-30T04:00:51;94504.78;;;40.23;28.78
73332;BME280;61560;33.718;73.040;2022-09-30T04:03:20;94507.28;;;40.61;28.29
73332;BME280;61560;33.718;73.040;2022-09-30T04:05:48;94502.69;;;40.35;28.52
73332;BME280;61560;33.718;73.040;2022-09-30T04:08:15;94502.94;;;40.60;27.91
73332;BME280;61560;33.718;73.040;2022-09-30T04:10:42;94500.88;;;40.95;27.40
73332;BME280;61560;33.718;73.040;2022-09-30T04:13:10;94502.41;;;41.42;26.22
73332;BME280;61560;33.718;73.040;2022-09-30T04:15:38;94508.53;;;41.83;26.14
73332;BME280;61560;33.718;73.040;2022-09-30T04:18:05;94501.25;;;42.05;25.66
73332;BME280;61560;33.718;73.040;2022-09-30T04:20:33;94505.47;;;42.16;25.17
73332;BME280;61560;33.718;73.040;2022-09-30T04:23:03;94501.53;;;41.75;25.62
73332;BME280;61560;33.718;73.040;2022-09-30T04:25:29;94505.09;;;42.10;24.79
73332;BME280;61560;33.718;73.040;2022-09-30T04:27:56;94503.63;;;41.97;24.71
73332;BME280;61560;33.718;73.040;2022-09-30T04:30:22;94500.31;;;42.14;24.38
73332;BME280;61560;33.718;73.040;2022-09-30T04:32:49;94509.50;;;42.36;24.51
73332;BME280;61560;33.718;73.040;2022-09-30T04:35:16;94502.69;;;42.43;23.94
73332;BME280;61560;33.718;73.040;2022-09-30T04:37:45;94504.94;;;42.19;24.63
73332;BME280;61560;33.718;73.040;2022-09-30T04:40:13;94508.09;;;42.00;24.48
73332;BME280;61560;33.718;73.040;2022-09-30T04:42:41;94501.78;;;42.27;25.17
73332;BME280;61560;33.718;73.040;2022-09-30T04:45:10;94506.13;;;42.65;24.68
73332;BME280;61560;33.718;73.040;2022-09-30T04:47:37;94497.31;;;43.13;23.85
73332;BME280;61560;33.718;73.040;2022-09-30T04:50:05;94507.06;;;43.20;24.05
73332;BME280;61560;33.718;73.040;2022-09-30T04:52:32;94495.00;;;43.23;24.26
73332;BME280;61560;33.718;73.040;2022-09-30T04:54:58;94502.94;;;43.36;23.61
73332;BME280;61560;33.718;73.040;2022-09-30T04:57:25;94503.06;;;42.74;23.98
73332;BME280;61560;33.718;73.040;2022-09-30T04:59:52;94509.38;;;43.09;24.01
73332;BME280;61560;33.718;73.040;2022-09-30T05:02:19;94497.69;;;43.46;23.07
73332;BME280;61560;33.718;73.040;2022-09-30T05:04:45;94499.09;;;43.45;22.96
73332;BME280;61560;33.718;73.040;2022-09-30T05:07:12;94504.44;;;43.51;23.00
73332;BME280;61560;33.718;73.040;2022-09-30T05:09:39;94498.34;;;43.85;22.70
73332;BME280;61560;33.718;73.040;2022-09-30T05:12:08;94498.25;;;43.29;22.88
73332;BME280;61560;33.718;73.040;2022-09-30T05:14:35;94495.50;;;42.81;23.45
73332;BME280;61560;33.718;73.040;2022-09-30T05:17:03;94490.66;;;42.72;23.70
73332;BME280;61560;33.718;73.040;2022-09-30T05:19:30;94489.31;;;42.73;23.48
73332;BME280;61560;33.718;73.040;2022-09-30T05:21:57;94487.72;;;42.45;23.93
73332;BME280;61560;33.718;73.040;2022-09-30T05:24:24;94484.91;;;42.21;24.18
73332;BME280;61560;33.718;73.040;2022-09-30T05:26:50;94493.41;;;41.71;24.64
73332;BME280;61560;33.718;73.040;2022-09-30T05:29:17;94489.19;;;41.26;26.00
73332;BME280;61560;33.718;73.040;2022-09-30T05:31:45;94475.25;;;40.88;26.50
73332;BME280;61560;33.718;73.040;2022-09-30T05:34:11;94485.53;;;40.46;26.64
73332;BME280;61560;33.718;73.040;2022-09-30T05:36:38;94480.75;;;40.07;27.46
73332;BME280;61560;33.718;73.040;2022-09-30T05:39:04;94475.66;;;39.53;28.28
73332;BME280;61560;33.718;73.040;2022-09-30T05:41:31;94478.97;;;38.98;28.87
73332;BME280;61560;33.718;73.040;2022-09-30T05:43:58;94473.22;;;38.48;30.15
73332;BME280;61560;33.718;73.040;2022-09-30T05:46:26;94468.47;;;37.93;31.38
73332;BME280;61560;33.718;73.040;2022-09-30T05:48:53;94470.25;;;37.79;31.25
73332;BME280;61560;33.718;73.040;2022-09-30T05:51:21;94470.81;;;37.58;31.10
73332;BME280;61560;33.718;73.040;2022-09-30T05:53:47;94469.25;;;37.29;32.16
73332;BME280;61560;33.718;73.040;2022-09-30T05:56:14;94469.03;;;37.08;32.29
73332;BME280;61560;33.718;73.040;2022-09-30T05:58:41;94474.72;;;36.98;32.33
73332;BME280;61560;33.718;73.040;2022-09-30T06:01:11;94470.81;;;36.67;33.07
73332;BME280;61560;33.718;73.040;2022-09-30T06:03:38;94475.41;;;36.53;33.11
73332;BME280;61560;33.718;73.040;2022-09-30T06:06:05;94469.53;;;36.34;33.65
73332;BME280;61560;33.718;73.040;2022-09-30T06:08:32;94459.03;;;35.92;34.03
73332;BME280;61560;33.718;73.040;2022-09-30T06:10:59;94469.78;;;35.84;35.06
73332;BME280;61560;33.718;73.040;2022-09-30T06:13:26;94466.53;;;35.54;35.06
73332;BME280;61560;33.718;73.040;2022-09-30T06:15:58;94466.38;;;35.27;35.52
73332;BME280;61560;33.718;73.040;2022-09-30T06:18:26;94467.22;;;35.37;35.54
73332;BME280;61560;33.718;73.040;2022-09-30T06:20:57;94458.81;;;35.47;35.73
73332;BME280;61560;33.718;73.040;2022-09-30T06:23:24;94458.44;;;35.25;35.38
73332;BME280;61560;33.718;73.040;2022-09-30T06:25:52;94452.13;;;35.10;35.71
73332;BME280;61560;33.718;73.040;2022-09-30T06:28:20;94460.69;;;35.10;35.66
73332;BME280;61560;33.718;73.040;2022-09-30T06:30:47;94448.44;;;35.17;35.86
73332;BME280;61560;33.718;73.040;2022-09-30T06:33:14;94453.91;;;35.22;36.11
73332;BME280;61560;33.718;73.040;2022-09-30T06:35:41;94451.13;;;35.15;35.82
73332;BME280;61560;33.718;73.040;2022-09-30T06:38:12;94442.84;;;35.09;36.54
73332;BME280;61560;33.718;73.040;2022-09-30T06:40:44;94441.72;;;35.05;36.92
73332;BME280;61560;33.718;73.040;2022-09-30T06:43:21;94435.75;;;34.93;37.22
73332;BME280;61560;33.718;73.040;2022-09-30T06:45:48;94438.72;;;34.78;37.94
73332;BME280;61560;33.718;73.040;2022-09-30T06:48:17;94438.47;;;34.84;38.52
73332;BME280;61560;33.718;73.040;2022-09-30T06:50:43;94428.53;;;34.92;38.37
73332;BME280;61560;33.718;73.040;2022-09-30T06:53:12;94421.47;;;35.01;38.39
73332;BME280;61560;33.718;73.040;2022-09-30T06:55:39;94421.19;;;34.89;38.29
73332;BME280;61560;33.718;73.040;2022-09-30T06:58:12;94415.94;;;34.78;37.84
73332;BME280;61560;33.718;73.040;2022-09-30T07:00:40;94412.00;;;34.74;37.74
73332;BME280;61560;33.718;73.040;2022-09-30T07:03:16;94405.44;;;34.63;37.85
73332;BME280;61560;33.718;73.040;2022-09-30T07:05:45;94407.94;;;34.59;37.74
73332;BME280;61560;33.718;73.040;2022-09-30T07:08:11;94402.00;;;34.65;37.80
73332;BME280;61560;33.718;73.040;2022-09-30T07:10:38;94403.38;;;34.64;38.50
73332;BME280;61560;33.718;73.040;2022-09-30T07:13:04;94394.75;;;34.72;37.83
73332;BME280;61560;33.718;73.040;2022-09-30T07:15:31;94390.00;;;34.74;38.58
73332;BME280;61560;33.718;73.040;2022-09-30T07:17:58;94387.16;;;34.74;39.23
73332;BME280;61560;33.718;73.040;2022-09-30T07:20:25;94387.56;;;34.71;39.41
73332;BME280;61560;33.718;73.040;2022-09-30T07:22:52;94378.69;;;34.67;39.41
73332;BME280;61560;33.718;73.040;2022-09-30T07:25:19;94377.94;;;34.66;39.56
73332;BME280;61560;33.718;73.040;2022-09-30T07:27:45;94379.41;;;34.67;39.14
73332;BME280;61560;33.718;73.040;2022-09-30T07:30:12;94373.72;;;34.67;39.69
73332;BME280;61560;33.718;73.040;2022-09-30T07:32:38;94380.09;;;34.58;38.04
73332;BME280;61560;33.718;73.040;2022-09-30T07:35:06;94367.13;;;34.40;38.44
73332;BME280;61560;33.718;73.040;2022-09-30T07:37:33;94373.44;;;34.31;39.26
73332;BME280;61560;33.718;73.040;2022-09-30T07:40:03;94367.56;;;34.29;39.59
73332;BME280;61560;33.718;73.040;2022-09-30T07:42:32;94356.19;;;34.29;39.71
73332;BME280;61560;33.718;73.040;2022-09-30T07:44:59;94354.28;;;34.31;40.05
73332;BME280;61560;33.718;73.040;2022-09-30T07:47:26;94348.19;;;34.35;39.97
73332;BME280;61560;33.718;73.040;2022-09-30T07:49:52;94348.94;;;34.35;39.31
73332;BME280;61560;33.718;73.040;2022-09-30T07:52:19;94340.84;;;34.32;39.38
73332;BME280;61560;33.718;73.040;2022-09-30T07:54:46;94350.69;;;34.31;39.53
73332;BME280;61560;33.718;73.040;2022-09-30T07:57:15;94338.91;;;34.34;40.56
73332;BME280;61560;33.718;73.040;2022-09-30T07:59:42;94334.97;;;34.30;39.97
73332;BME280;61560;33.718;73.040;2022-09-30T08:02:16;94335.50;;;34.36;40.68
73332;BME280;61560;33.718;73.040;2022-09-30T08:04:45;94324.28;;;34.38;39.56
73332;BME280;61560;33.718;73.040;2022-09-30T08:07:13;94318.59;;;34.38;40.26
73332;BME280;61560;33.718;73.040;2022-09-30T08:09:41;94314.06;;;34.35;39.54
73332;BME280;61560;33.718;73.040;2022-09-30T08:12:08;94302.75;;;34.27;39.33
73332;BME280;61560;33.718;73.040;2022-09-30T08:14:35;94296.13;;;34.25;39.66
73332;BME280;61560;33.718;73.040;2022-09-30T08:17:01;94294.06;;;34.25;39.38
73332;BME280;61560;33.718;73.040;2022-09-30T08:19:29;94296.47;;;34.29;39.47
73332;BME280;61560;33.718;73.040;2022-09-30T08:21:56;94290.16;;;34.38;38.91
73332;BME280;61560;33.718;73.040;2022-09-30T08:24:24;94283.63;;;34.45;39.37
73332;BME280;61560;33.718;73.040;2022-09-30T08:26:51;94279.06;;;34.49;39.03
73332;BME280;61560;33.718;73.040;2022-09-30T08:29:19;94273.56;;;34.51;39.61
73332;BME280;61560;33.718;73.040;2022-09-30T08:31:46;94280.75;;;34.52;39.44
73332;BME280;61560;33.718;73.040;2022-09-30T08:34:14;94275.25;;;34.54;38.61
73332;BME280;61560;33.718;73.040;2022-09-30T08:36:40;94271.31;;;34.42;39.02
73332;BME280;61560;33.718;73.040;2022-09-30T08:39:07;94266.81;;;34.39;38.71
73332;BME280;61560;33.718;73.040;2022-09-30T08:52:42;94246.13;;;34.22;38.82
73332;BME280;61560;33.718;73.040;2022-09-30T08:55:22;94248.28;;;34.14;38.67
73332;BME280;61560;33.718;73.040;2022-09-30T08:57:51;94241.72;;;34.04;39.09
73332;BME280;61560;33.718;73.040;2022-09-30T09:00:19;94227.34;;;34.02;38.52
73332;BME280;61560;33.718;73.040;2022-09-30T09:02:53;94226.53;;;34.09;38.36
73332;BME280;61560;33.718;73.040;2022-09-30T09:11:46;94216.25;;;34.13;38.96
73332;BME280;61560;33.718;73.040;2022-09-30T09:17:06;94215.84;;;34.17;38.96
73332;BME280;61560;33.718;73.040;2022-09-30T09:19:44;94206.38;;;34.14;38.60
73332;BME280;61560;33.718;73.040;2022-09-30T09:22:12;94211.56;;;34.08;38.97
73332;BME280;61560;33.718;73.040;2022-09-30T09:24:46;94199.84;;;34.04;38.92
73332;BME280;61560;33.718;73.040;2022-09-30T09:30:18;94200.78;;;34.07;38.94
73332;BME280;61560;33.718;73.040;2022-09-30T09:32:50;94198.34;;;34.03;38.11
73332;BME280;61560;33.718;73.040;2022-09-30T09:38:29;94187.59;;;33.94;39.62
73332;BME280;61560;33.718;73.040;2022-09-30T09:48:47;94168.84;;;33.74;40.77
73332;BME280;61560;33.718;73.040;2022-09-30T09:53:51;94163.38;;;33.68;40.18
73332;BME280;61560;33.718;73.040;2022-09-30T09:56:32;94156.38;;;33.69;38.69
73332;BME280;61560;33.718;73.040;2022-09-30T09:59:18;94156.38;;;33.69;39.25
73332;BME280;61560;33.718;73.040;2022-09-30T10:01:52;94157.50;;;33.66;39.34
73332;BME280;61560;33.718;73.040;2022-09-30T10:06:57;94152.09;;;33.61;39.12
73332;BME280;61560;33.718;73.040;2022-09-30T10:09:28;94148.81;;;33.64;39.13
73332;BME280;61560;33.718;73.040;2022-09-30T10:17:21;94149.81;;;33.59;39.18
73332;BME280;61560;33.718;73.040;2022-09-30T10:20:02;94138.88;;;33.56;39.58
73332;BME280;61560;33.718;73.040;2022-09-30T10:22:34;94140.97;;;33.55;39.75
73332;BME280;61560;33.718;73.040;2022-09-30T10:25:18;94134.53;;;33.55;39.99
73332;BME280;61560;33.718;73.040;2022-09-30T10:28:00;94132.84;;;33.52;39.84
73332;BME280;61560;33.718;73.040;2022-09-30T10:33:17;94133.09;;;33.39;38.53
73332;BME280;61560;33.718;73.040;2022-09-30T10:36:00;94133.91;;;33.32;38.91
73332;BME280;61560;33.718;73.040;2022-09-30T10:38:29;94134.50;;;33.30;39.19
73332;BME280;61560;33.718;73.040;2022-09-30T10:40:57;94126.38;;;33.27;39.38
73332;BME280;61560;33.718;73.040;2022-09-30T10:43:31;94125.03;;;33.28;39.04
73332;BME280;61560;33.718;73.040;2022-09-30T10:45:59;94121.47;;;33.27;38.65
73332;BME280;61560;33.718;73.040;2022-09-30T10:48:32;94116.00;;;33.22;39.69
73332;BME280;61560;33.718;73.040;2022-09-30T10:51:03;94116.41;;;33.18;40.02
73332;BME280;61560;33.718;73.040;2022-09-30T10:53:32;94124.34;;;33.20;40.06
73332;BME280;61560;33.718;73.040;2022-09-30T10:56:00;94114.16;;;33.17;39.51
73332;BME280;61560;33.718;73.040;2022-09-30T11:01:28;94116.41;;;33.18;40.04
73332;BME280;61560;33.718;73.040;2022-09-30T11:06:31;94106.97;;;33.16;39.32
73332;BME280;61560;33.718;73.040;2022-09-30T11:09:08;94101.69;;;33.12;39.38
73332;BME280;61560;33.718;73.040;2022-09-30T11:11:42;94105.31;;;33.13;39.55
73332;BME280;61560;33.718;73.040;2022-09-30T11:14:28;94106.44;;;33.10;40.28
73332;BME280;61560;33.718;73.040;2022-09-30T11:17:17;94110.09;;;33.02;40.69
73332;BME280;61560;33.718;73.040;2022-09-30T11:20:11;94097.81;;;33.00;40.70
73332;BME280;61560;33.718;73.040;2022-09-30T11:22:44;94105.78;;;32.94;41.36
73332;BME280;61560;33.718;73.040;2022-09-30T11:25:27;94108.81;;;32.88;41.77
73332;BME280;61560;33.718;73.040;2022-09-30T11:41:41;94110.53;;;32.44;44.54
73332;BME280;61560;33.718;73.040;2022-09-30T11:47:13;94114.38;;;32.32;46.22
73332;BME280;61560;33.718;73.040;2022-09-30T11:52:41;94116.69;;;32.18;46.96
73332;BME280;61560;33.718;73.040;2022-09-30T11:58:04;94115.00;;;32.07;47.54
73332;BME280;61560;33.718;73.040;2022-09-30T12:00:35;94096.91;;;31.95;47.80
73332;BME280;61560;33.718;73.040;2022-09-30T12:03:12;94098.63;;;31.83;48.83
73332;BME280;61560;33.718;73.040;2022-09-30T12:05:45;94108.44;;;31.67;49.65
73332;BME280;61560;33.718;73.040;2022-09-30T12:08:17;94100.53;;;31.58;50.10
73332;BME280;61560;33.718;73.040;2022-09-30T12:10:54;94102.63;;;31.50;50.62
73332;BME280;61560;33.718;73.040;2022-09-30T12:13:35;94095.44;;;31.41;50.81
73332;BME280;61560;33.718;73.040;2022-09-30T12:16:08;94101.47;;;31.38;50.99
73332;BME280;61560;33.718;73.040;2022-09-30T12:18:38;94100.91;;;31.32;51.19
73332;BME280;61560;33.718;73.040;2022-09-30T12:21:29;94095.63;;;31.21;51.48
73332;BME280;61560;33.718;73.040;2022-09-30T12:24:10;94091.66;;;31.09;51.81
73332;BME280;61560;33.718;73.040;2022-09-30T12:26:39;94097.13;;;30.99;52.13
73332;BME280;61560;33.718;73.040;2022-09-30T12:29:16;94096.13;;;30.89;52.00
73332;BME280;61560;33.718;73.040;2022-09-30T12:34:58;94097.78;;;30.77;52.75
73332;BME280;61560;33.718;73.040;2022-09-30T12:46:12;94100.34;;;30.45;52.54
73332;BME280;61560;33.718;73.040;2022-09-30T12:48:47;94107.13;;;30.42;52.81
73332;BME280;61560;33.718;73.040;2022-09-30T12:51:33;94102.00;;;30.33;53.20
73332;BME280;61560;33.718;73.040;2022-09-30T12:56:45;94104.91;;;30.12;54.33
73332;BME280;61560;33.718;73.040;2022-09-30T12:59:13;94116.91;;;30.05;54.40
73332;BME280;61560;33.718;73.040;2022-09-30T14:19:11;94198.56;;;28.92;55.51
73332;BME280;61560;33.718;73.040;2022-09-30T14:21:56;94197.81;;;28.92;55.20
73332;BME280;61560;33.718;73.040;2022-09-30T14:24:26;94199.88;;;28.91;55.13
73332;BME280;61560;33.718;73.040;2022-09-30T14:27:29;94201.16;;;28.90;54.78
73332;BME280;61560;33.718;73.040;2022-09-30T14:30:10;94206.28;;;28.92;55.09
73332;BME280;61560;33.718;73.040;2022-09-30T14:32:44;94201.94;;;28.91;54.65
73332;BME280;61560;33.718;73.040;2022-09-30T14:35:32;94211.28;;;28.86;55.14
73332;BME280;61560;33.718;73.040;2022-09-30T14:38:06;94211.19;;;28.78;55.35
73332;BME280;61560;33.718;73.040;2022-09-30T14:40:35;94214.69;;;28.71;56.10
73332;BME280;61560;33.718;73.040;2022-09-30T14:43:05;94215.97;;;28.70;56.03
73332;BME280;61560;33.718;73.040;2022-09-30T14:45:36;94219.91;;;28.67;56.21
73332;BME280;61560;33.718;73.040;2022-09-30T14:48:14;94220.22;;;28.64;56.49
73332;BME280;61560;33.718;73.040;2022-09-30T14:51:03;94230.75;;;28.63;56.28
73332;BME280;61560;33.718;73.040;2022-09-30T14:53:38;94231.28;;;28.62;55.75
73332;BME280;61560;33.718;73.040;2022-09-30T14:56:43;94230.75;;;28.63;55.67
73332;BME280;61560;33.718;73.040;2022-09-30T14:59:27;94232.25;;;28.64;55.03
73332;BME280;61560;33.718;73.040;2022-09-30T15:01:59;94232.25;;;28.64;54.53
73332;BME280;61560;33.718;73.040;2022-09-30T15:04:30;94226.75;;;28.59;55.00
73332;BME280;61560;33.718;73.040;2022-09-30T15:06:59;94238.22;;;28.61;55.07
73332;BME280;61560;33.718;73.040;2022-09-30T15:09:30;94231.28;;;28.62;55.42
73332;BME280;61560;33.718;73.040;2022-09-30T15:14:54;94233.75;;;28.52;54.69
73332;BME280;61560;33.718;73.040;2022-09-30T15:17:39;94239.59;;;28.54;55.01
73332;BME280;61560;33.718;73.040;2022-09-30T15:20:34;94230.38;;;28.54;54.52
73332;BME280;61560;33.718;73.040;2022-09-30T15:23:08;94235.81;;;28.52;54.61
73332;BME280;61560;33.718;73.040;2022-09-30T15:25:41;94232.56;;;28.48;55.17
73332;BME280;61560;33.718;73.040;2022-09-30T15:28:09;94227.06;;;28.42;55.51
73332;BME280;61560;33.718;73.040;2022-09-30T15:30:37;94226.06;;;28.40;55.16
73332;BME280;61560;33.718;73.040;2022-09-30T15:33:05;94224.78;;;28.41;55.87
73332;BME280;61560;33.718;73.040;2022-09-30T15:35:32;94221.53;;;28.37;56.32
73332;BME280;61560;33.718;73.040;2022-09-30T15:38:24;94216.44;;;28.35;56.32
73332;BME280;61560;33.718;73.040;2022-09-30T15:41:05;94219.81;;;28.33;55.98
73332;BME280;61560;33.718;73.040;2022-09-30T15:43:47;94219.25;;;28.35;56.16
73332;BME280;61560;33.718;73.040;2022-09-30T15:46:30;94217.53;;;28.32;56.52
73332;BME280;61560;33.718;73.040;2022-09-30T15:49:03;94214.94;;;28.34;55.65
73332;BME280;61560;33.718;73.040;2022-09-30T15:51:37;94213.41;;;28.33;55.52
73332;BME280;61560;33.718;73.040;2022-09-30T15:56:41;94209.19;;;28.26;55.89
73332;BME280;61560;33.718;73.040;2022-09-30T15:59:10;94206.16;;;28.24;56.00
73332;BME280;61560;33.718;73.040;2022-09-30T16:01:45;94208.75;;;28.22;55.87
73332;BME280;61560;33.718;73.040;2022-09-30T16:12:31;94207.25;;;28.08;56.23
73332;BME280;61560;33.718;73.040;2022-09-30T16:14:44;94209.31;;;28.08;56.36
73332;BME280;61560;33.718;73.040;2022-09-30T16:17:36;94204.97;;;28.07;56.09
73332;BME280;61560;33.718;73.040;2022-09-30T16:25:25;94209.53;;;27.97;57.03
73332;BME280;61560;33.718;73.040;2022-09-30T16:28:13;94216.97;;;27.94;57.61
73332;BME280;61560;33.718;73.040;2022-09-30T16:30:43;94215.25;;;27.91;57.57
73332;BME280;61560;33.718;73.040;2022-09-30T16:33:13;94215.53;;;27.88;57.44
73332;BME280;61560;33.718;73.040;2022-09-30T16:35:42;94221.72;;;27.86;57.78
73332;BME280;61560;33.718;73.040;2022-09-30T16:38:12;94218.13;;;27.86;58.18
73332;BME280;61560;33.718;73.040;2022-09-30T16:40:40;94223.56;;;27.84;58.68
73332;BME280;61560;33.718;73.040;2022-09-30T16:43:07;94221.50;;;27.84;58.23
73332;BME280;61560;33.718;73.040;2022-09-30T16:45:38;94225.63;;;27.83;58.20
73332;BME280;61560;33.718;73.040;2022-09-30T16:48:14;94226.16;;;27.82;57.88
73332;BME280;61560;33.718;73.040;2022-09-30T16:51:12;94227.47;;;27.81;58.02
73332;BME280;61560;33.718;73.040;2022-09-30T16:53:39;94225.16;;;27.79;58.10
73332;BME280;61560;33.718;73.040;2022-09-30T16:56:17;94226.16;;;27.82;57.62
73332;BME280;61560;33.718;73.040;2022-09-30T16:58:45;94228.97;;;27.82;57.30
73332;BME280;61560;33.718;73.040;2022-09-30T17:01:21;94228.97;;;27.82;57.58
73332;BME280;61560;33.718;73.040;2022-09-30T17:03:49;94228.75;;;27.80;57.26
73332;BME280;61560;33.718;73.040;2022-09-30T17:06:18;94228.19;;;27.81;57.14
73332;BME280;61560;33.718;73.040;2022-09-30T17:08:51;94228.75;;;27.80;57.27
73332;BME280;61560;33.718;73.040;2022-09-30T17:11:25;94234.38;;;27.80;57.00
73332;BME280;61560;33.718;73.040;2022-09-30T17:13:54;94232.09;;;27.78;57.68
73332;BME280;61560;33.718;73.040;2022-09-30T17:16:21;94231.44;;;27.72;57.29
73332;BME280;61560;33.718;73.040;2022-09-30T17:18:51;94228.63;;;27.72;57.58
73332;BME280;61560;33.718;73.040;2022-09-30T17:21:19;94229.69;;;27.69;57.49
73332;BME280;61560;33.718;73.040;2022-09-30T17:23:47;94228.97;;;27.69;57.57
73332;BME280;61560;33.718;73.040;2022-09-30T17:26:15;94231.00;;;27.68;57.69
73332;BME280;61560;33.718;73.040;2022-09-30T17:28:49;94234.03;;;27.70;57.43
73332;BME280;61560;33.718;73.040;2022-09-30T17:31:18;94226.16;;;27.69;57.42
73332;BME280;61560;33.718;73.040;2022-09-30T17:33:44;94229.47;;;27.67;58.11
73332;BME280;61560;33.718;73.040;2022-09-30T17:36:13;94239.34;;;27.61;58.93
73332;BME280;61560;33.718;73.040;2022-09-30T17:38:40;94238.75;;;27.49;59.15
73332;BME280;61560;33.718;73.040;2022-09-30T17:41:11;94233.56;;;27.40;59.54
73332;BME280;61560;33.718;73.040;2022-09-30T17:43:57;94248.97;;;27.33;59.45